Deerbrook, Mississippi
Current Conditions -  °F | °C
As of 7:45 PM on Sunday 21 Dec 2014 (Local Time) from KGTR Reporting Station
Overcast Overcast  
Wind Chill: 44°   Ceiling: 800
Heat Index: 48°   Visibility: 8mi
Dew Point: 45°   Wind: 10mph
Humidity: 87%   Direction: 140°SE
Pressure: 30.04"   Gusts: NA
Location:  33.2136°N, 88.5275°W
Report Text: KGTR 220145Z 14009KT 8SM OVC008 09/07 A3004
Loading
Personal Weather Stations






























Interactive Weather Map New forecast layout! Learn more

10-Day Weather Forecast

Advertisements
Track Severe Weather on mobile